Artesia, MS

1:33 AM CDT on April 21, 2015 (GMT -0500)
Golden Triangle Regional | | Change Station
CLOSE
Current Station
Airport
Location: Golden Triangle,
Elevation: 262 ft
Nearby Weather Stations
Active Advisory: Flood Warning Active Notice: Local Storm Report

Elev 262 ft 33.45 °N, 88.59 °W | Updated 18 minutes ago

Clear
Clear
48 °F
Feels Like 48 °F
N
0
Wind Variable Wind from North

Today
High -- | Low -- °F
--% Chance of Precip.
Yesterday
High -- | Low -- °F
Precip. -- in
6:17 AM 7:29 PM
Waxing Crescent, 8% visible
Pressure 29.97 in
Visibility 10.0 miles
Clouds Clear
Dew Point 45 °F
Humidity 87%
Rainfall 0.00 in
Snow Depth Not available.
UV 0 out of 12
Pollen 7.80 out of 12
Air Quality Not available.
Flu Activity Sporadic
METAR KGTR 210615Z AUTO 00000KT 10SM CLR 09/07 A2997 RMK AO1

More Conditions Fewer Conditions

Pressure 29.97 in
Visibility 10.0 miles
Clouds Clear
Dew Point 45 °F
Humidity 87%
Rainfall 0.00 in
Snow Depth Not available.
UV 0 out of 12
Pollen 7.80 out of 12
Air Quality Not available.
Flu Activity Sporadic
METAR KGTR 210615Z AUTO 00000KT 10SM CLR 09/07 A2997 RMK AO1

More Conditions Fewer Conditions

10-Day Weather Forecast

Almanac

Astronomy

Apr. 21, 2015 Rise Set
Actual Time
Civil Twilight
Nautical Twilight
Astronomical Twilight
Moon
Length of Visible Light
Length of Day
Tomorrow will be .
, % of the Moon is Illuminated

Today's Extremes

State Highs State Lows

Community

WunderPhotos

Upload Photos

1,815,320 photos uploaded!

WunderBlogs® & News

Nearby

Air Quality

  Air Quality AQ Index Pollutant
Not available.

Snow Depth

Station Depth Elevation

Earthquake Activity

City Distance Mag. Time & Date
Minimum magnitude displayed is 2.5.

Coastal Water Temperatures

Place Temperature

Stations

Nearby Weather Stations

Station Location Temp. Windchill Dew Point Humidity Wind Precip. Elev Updated Type
                   
Flood Warning
Statement as of 8:46 PM CDT on April 20, 2015

The Flood Warning continues for
the Buttahatchie river near Buttahatchie river near Aberdeen 13ese
* until Thursday April 23.
* At 8 PM Monday the stage was 13.1 feet.
* Minor flooding is occurring and minor flooding is forecast.
* Maximum forecast stage of 13.5 feet on the 22nd.
* Flood stage is 13.0 feet.
* The river rose above flood stage Monday April 20 and will continue
rising to near 13.5 feet by Wednesday April 22. The river will fall
below flood stage Thursday April 23.
* At 14.0 feet... flood water begins to cover airbase Road located on
the West Bank of the river. Low lying farmland land near the river
also begins to flood.


Lat... Lon 3409 8829 3409 8821 3373 8826 3365 8843
      3370 8844 3375 8839